sensor_id;sensor_type;location;lat;lon;timestamp;P1;durP1;ratioP1;P2;durP2;ratioP2
793;SDS011;380;48.738;9.214;2023-07-08T00:02:18;5.97;;;4.07;;
793;SDS011;380;48.738;9.214;2023-07-08T00:04:44;7.05;;;3.97;;
793;SDS011;380;48.738;9.214;2023-07-08T00:07:10;5.70;;;3.78;;
793;SDS011;380;48.738;9.214;2023-07-08T00:09:38;5.85;;;3.83;;
793;SDS011;380;48.738;9.214;2023-07-08T00:12:10;6.22;;;4.32;;
793;SDS011;380;48.738;9.214;2023-07-08T00:14:36;5.63;;;3.67;;
793;SDS011;380;48.738;9.214;2023-07-08T00:17:04;6.93;;;5.10;;
793;SDS011;380;48.738;9.214;2023-07-08T00:19:30;4.65;;;3.80;;
793;SDS011;380;48.738;9.214;2023-07-08T00:21:56;6.63;;;4.40;;
793;SDS011;380;48.738;9.214;2023-07-08T00:24:22;5.70;;;3.85;;
793;SDS011;380;48.738;9.214;2023-07-08T00:26:48;5.20;;;3.63;;
793;SDS011;380;48.738;9.214;2023-07-08T00:29:15;4.53;;;3.75;;
793;SDS011;380;48.738;9.214;2023-07-08T00:31:42;5.35;;;3.90;;
793;SDS011;380;48.738;9.214;2023-07-08T00:34:08;6.25;;;4.78;;
793;SDS011;380;48.738;9.214;2023-07-08T00:36:34;5.45;;;4.40;;
793;SDS011;380;48.738;9.214;2023-07-08T00:39:00;5.10;;;4.10;;
793;SDS011;380;48.738;9.214;2023-07-08T00:41:33;5.05;;;3.97;;
793;SDS011;380;48.738;9.214;2023-07-08T00:44:00;6.80;;;3.97;;
793;SDS011;380;48.738;9.214;2023-07-08T00:48:53;8.25;;;4.00;;
793;SDS011;380;48.738;9.214;2023-07-08T00:51:20;5.85;;;4.10;;
793;SDS011;380;48.738;9.214;2023-07-08T00:53:48;5.55;;;4.57;;
793;SDS011;380;48.738;9.214;2023-07-08T00:56:33;5.47;;;3.33;;
793;SDS011;380;48.738;9.214;2023-07-08T00:59:07;6.22;;;4.10;;
793;SDS011;380;48.738;9.214;2023-07-08T01:01:35;6.43;;;4.30;;
793;SDS011;380;48.738;9.214;2023-07-08T01:04:06;4.82;;;4.00;;
793;SDS011;380;48.738;9.214;2023-07-08T01:06:35;5.07;;;3.78;;
793;SDS011;380;48.738;9.214;2023-07-08T01:09:05;6.28;;;4.03;;
793;SDS011;380;48.738;9.214;2023-07-08T01:11:31;5.63;;;4.60;;
793;SDS011;380;48.738;9.214;2023-07-08T01:13:58;5.78;;;3.88;;
793;SDS011;380;48.738;9.214;2023-07-08T01:16:25;5.85;;;3.13;;
793;SDS011;380;48.738;9.214;2023-07-08T01:18:51;5.03;;;4.28;;
793;SDS011;380;48.738;9.214;2023-07-08T01:21:28;6.35;;;4.50;;
793;SDS011;380;48.738;9.214;2023-07-08T01:23:54;6.20;;;4.35;;
793;SDS011;380;48.738;9.214;2023-07-08T01:26:24;6.65;;;4.50;;
793;SDS011;380;48.738;9.214;2023-07-08T01:28:51;5.00;;;3.75;;
793;SDS011;380;48.738;9.214;2023-07-08T01:31:17;5.13;;;3.72;;
793;SDS011;380;48.738;9.214;2023-07-08T01:33:44;4.90;;;4.05;;
793;SDS011;380;48.738;9.214;2023-07-08T01:36:10;5.72;;;4.00;;
793;SDS011;380;48.738;9.214;2023-07-08T01:38:36;7.85;;;4.35;;
793;SDS011;380;48.738;9.214;2023-07-08T01:41:02;6.13;;;4.35;;
793;SDS011;380;48.738;9.214;2023-07-08T01:43:28;6.03;;;3.75;;
793;SDS011;380;48.738;9.214;2023-07-08T01:45:54;4.97;;;3.72;;
793;SDS011;380;48.738;9.214;2023-07-08T01:48:22;7.20;;;4.63;;
793;SDS011;380;48.738;9.214;2023-07-08T01:50:52;6.13;;;4.13;;
793;SDS011;380;48.738;9.214;2023-07-08T01:53:31;6.13;;;4.85;;
793;SDS011;380;48.738;9.214;2023-07-08T01:55:57;4.88;;;3.83;;
793;SDS011;380;48.738;9.214;2023-07-08T01:58:24;7.28;;;4.55;;
793;SDS011;380;48.738;9.214;2023-07-08T02:00:50;5.65;;;4.07;;
793;SDS011;380;48.738;9.214;2023-07-08T02:03:16;6.65;;;4.20;;
793;SDS011;380;48.738;9.214;2023-07-08T02:05:42;5.25;;;4.10;;
793;SDS011;380;48.738;9.214;2023-07-08T02:08:08;6.75;;;4.88;;
793;SDS011;380;48.738;9.214;2023-07-08T02:10:34;9.18;;;4.65;;
793;SDS011;380;48.738;9.214;2023-07-08T02:13:00;5.95;;;3.80;;
793;SDS011;380;48.738;9.214;2023-07-08T02:15:26;4.25;;;3.75;;
793;SDS011;380;48.738;9.214;2023-07-08T02:17:52;5.22;;;4.10;;
793;SDS011;380;48.738;9.214;2023-07-08T02:20:18;4.00;;;3.28;;
793;SDS011;380;48.738;9.214;2023-07-08T02:22:44;4.60;;;3.50;;
793;SDS011;380;48.738;9.214;2023-07-08T02:25:10;5.38;;;3.80;;
793;SDS011;380;48.738;9.214;2023-07-08T02:27:36;5.57;;;4.13;;
793;SDS011;380;48.738;9.214;2023-07-08T02:30:03;7.65;;;4.25;;
793;SDS011;380;48.738;9.214;2023-07-08T02:32:29;5.57;;;3.65;;
793;SDS011;380;48.738;9.214;2023-07-08T02:34:55;6.82;;;4.38;;
793;SDS011;380;48.738;9.214;2023-07-08T02:37:21;6.97;;;4.30;;
793;SDS011;380;48.738;9.214;2023-07-08T02:39:47;5.82;;;4.35;;
793;SDS011;380;48.738;9.214;2023-07-08T02:42:13;7.20;;;3.70;;
793;SDS011;380;48.738;9.214;2023-07-08T02:44:38;6.15;;;4.07;;
793;SDS011;380;48.738;9.214;2023-07-08T02:47:04;7.03;;;3.97;;
793;SDS011;380;48.738;9.214;2023-07-08T02:49:30;5.75;;;3.83;;
793;SDS011;380;48.738;9.214;2023-07-08T02:51:56;4.72;;;2.92;;
793;SDS011;380;48.738;9.214;2023-07-08T02:54:22;4.53;;;3.42;;
793;SDS011;380;48.738;9.214;2023-07-08T02:56:48;5.15;;;3.83;;
793;SDS011;380;48.738;9.214;2023-07-08T02:59:14;8.98;;;4.40;;
793;SDS011;380;48.738;9.214;2023-07-08T03:01:40;9.13;;;4.53;;
793;SDS011;380;48.738;9.214;2023-07-08T03:04:11;5.97;;;4.50;;
793;SDS011;380;48.738;9.214;2023-07-08T03:06:39;7.88;;;4.35;;
793;SDS011;380;48.738;9.214;2023-07-08T03:09:05;7.75;;;4.18;;
793;SDS011;380;48.738;9.214;2023-07-08T03:11:31;4.95;;;3.75;;
793;SDS011;380;48.738;9.214;2023-07-08T03:13:57;5.43;;;4.03;;
793;SDS011;380;48.738;9.214;2023-07-08T03:16:23;6.05;;;3.90;;
793;SDS011;380;48.738;9.214;2023-07-08T03:18:49;5.63;;;4.18;;
793;SDS011;380;48.738;9.214;2023-07-08T03:21:15;6.03;;;3.70;;
793;SDS011;380;48.738;9.214;2023-07-08T03:23:42;5.25;;;3.78;;
793;SDS011;380;48.738;9.214;2023-07-08T03:26:11;6.13;;;4.03;;
793;SDS011;380;48.738;9.214;2023-07-08T03:28:38;6.35;;;4.75;;
793;SDS011;380;48.738;9.214;2023-07-08T03:31:04;5.85;;;3.85;;
793;SDS011;380;48.738;9.214;2023-07-08T03:33:30;8.15;;;3.85;;
793;SDS011;380;48.738;9.214;2023-07-08T03:35:56;5.30;;;3.80;;
793;SDS011;380;48.738;9.214;2023-07-08T03:38:22;6.63;;;4.65;;
793;SDS011;380;48.738;9.214;2023-07-08T03:40:48;6.00;;;4.15;;
793;SDS011;380;48.738;9.214;2023-07-08T03:43:14;5.85;;;4.13;;
793;SDS011;380;48.738;9.214;2023-07-08T03:45:40;7.00;;;4.75;;
793;SDS011;380;48.738;9.214;2023-07-08T03:48:06;7.18;;;4.65;;
793;SDS011;380;48.738;9.214;2023-07-08T03:50:32;5.35;;;4.32;;
793;SDS011;380;48.738;9.214;2023-07-08T03:52:58;6.18;;;4.30;;
793;SDS011;380;48.738;9.214;2023-07-08T03:55:23;5.22;;;4.05;;
793;SDS011;380;48.738;9.214;2023-07-08T03:57:49;6.18;;;3.75;;
793;SDS011;380;48.738;9.214;2023-07-08T04:00:15;7.50;;;5.30;;
793;SDS011;380;48.738;9.214;2023-07-08T04:02:42;6.03;;;3.92;;
793;SDS011;380;48.738;9.214;2023-07-08T04:05:13;6.07;;;4.30;;
793;SDS011;380;48.738;9.214;2023-07-08T04:07:39;5.65;;;4.53;;
793;SDS011;380;48.738;9.214;2023-07-08T04:10:06;6.20;;;3.70;;
793;SDS011;380;48.738;9.214;2023-07-08T04:12:32;5.53;;;3.67;;
793;SDS011;380;48.738;9.214;2023-07-08T04:14:58;4.47;;;3.38;;
793;SDS011;380;48.738;9.214;2023-07-08T04:17:23;6.32;;;4.18;;
793;SDS011;380;48.738;9.214;2023-07-08T04:19:50;6.45;;;4.15;;
793;SDS011;380;48.738;9.214;2023-07-08T04:22:16;4.93;;;3.53;;
793;SDS011;380;48.738;9.214;2023-07-08T04:24:42;5.78;;;3.80;;
793;SDS011;380;48.738;9.214;2023-07-08T04:27:11;6.22;;;3.83;;
793;SDS011;380;48.738;9.214;2023-07-08T04:29:38;6.75;;;4.20;;
793;SDS011;380;48.738;9.214;2023-07-08T04:32:04;6.07;;;3.90;;
793;SDS011;380;48.738;9.214;2023-07-08T04:34:30;5.25;;;4.18;;
793;SDS011;380;48.738;9.214;2023-07-08T04:36:56;5.63;;;4.03;;
793;SDS011;380;48.738;9.214;2023-07-08T04:39:22;5.10;;;3.67;;
793;SDS011;380;48.738;9.214;2023-07-08T04:41:48;7.85;;;4.43;;
793;SDS011;380;48.738;9.214;2023-07-08T04:44:14;5.10;;;4.45;;
793;SDS011;380;48.738;9.214;2023-07-08T04:49:10;8.85;;;4.05;;
793;SDS011;380;48.738;9.214;2023-07-08T04:51:36;6.30;;;3.80;;
793;SDS011;380;48.738;9.214;2023-07-08T04:54:03;7.30;;;4.53;;
793;SDS011;380;48.738;9.214;2023-07-08T04:56:39;5.38;;;4.88;;
793;SDS011;380;48.738;9.214;2023-07-08T04:59:07;6.10;;;4.75;;
793;SDS011;380;48.738;9.214;2023-07-08T05:01:33;5.90;;;4.53;;
793;SDS011;380;48.738;9.214;2023-07-08T05:03:59;9.65;;;4.50;;
793;SDS011;380;48.738;9.214;2023-07-08T05:06:26;8.07;;;4.85;;
793;SDS011;380;48.738;9.214;2023-07-08T05:08:52;5.65;;;4.32;;
793;SDS011;380;48.738;9.214;2023-07-08T05:11:18;5.63;;;4.38;;
793;SDS011;380;48.738;9.214;2023-07-08T05:13:44;5.43;;;4.20;;
793;SDS011;380;48.738;9.214;2023-07-08T05:16:09;5.72;;;4.15;;
793;SDS011;380;48.738;9.214;2023-07-08T05:18:35;5.53;;;4.35;;
793;SDS011;380;48.738;9.214;2023-07-08T05:21:02;7.05;;;4.55;;
793;SDS011;380;48.738;9.214;2023-07-08T05:23:28;6.28;;;4.72;;
793;SDS011;380;48.738;9.214;2023-07-08T05:25:54;7.25;;;4.78;;
793;SDS011;380;48.738;9.214;2023-07-08T05:28:20;6.28;;;4.60;;
793;SDS011;380;48.738;9.214;2023-07-08T05:30:51;10.98;;;4.53;;
793;SDS011;380;48.738;9.214;2023-07-08T05:33:18;7.90;;;4.97;;
793;SDS011;380;48.738;9.214;2023-07-08T05:35:45;7.03;;;4.72;;
793;SDS011;380;48.738;9.214;2023-07-08T05:38:10;6.05;;;4.80;;
793;SDS011;380;48.738;9.214;2023-07-08T05:40:36;9.20;;;5.03;;
793;SDS011;380;48.738;9.214;2023-07-08T05:43:02;6.50;;;4.65;;
793;SDS011;380;48.738;9.214;2023-07-08T05:45:28;5.47;;;3.78;;
793;SDS011;380;48.738;9.214;2023-07-08T05:47:55;5.57;;;4.38;;
793;SDS011;380;48.738;9.214;2023-07-08T05:50:21;5.75;;;4.75;;
793;SDS011;380;48.738;9.214;2023-07-08T05:52:47;5.88;;;4.30;;
793;SDS011;380;48.738;9.214;2023-07-08T05:55:13;5.80;;;3.70;;
793;SDS011;380;48.738;9.214;2023-07-08T05:57:39;4.78;;;3.30;;
793;SDS011;380;48.738;9.214;2023-07-08T06:00:06;7.18;;;4.15;;
793;SDS011;380;48.738;9.214;2023-07-08T06:02:32;4.18;;;3.55;;
793;SDS011;380;48.738;9.214;2023-07-08T06:04:58;5.60;;;4.18;;
793;SDS011;380;48.738;9.214;2023-07-08T06:07:24;5.82;;;4.18;;
793;SDS011;380;48.738;9.214;2023-07-08T06:09:50;5.93;;;4.40;;
793;SDS011;380;48.738;9.214;2023-07-08T06:12:16;6.75;;;4.93;;
793;SDS011;380;48.738;9.214;2023-07-08T06:14:42;6.38;;;5.03;;
793;SDS011;380;48.738;9.214;2023-07-08T06:17:08;7.22;;;4.57;;
793;SDS011;380;48.738;9.214;2023-07-08T06:19:34;6.47;;;4.65;;
793;SDS011;380;48.738;9.214;2023-07-08T06:22:00;7.15;;;4.85;;
793;SDS011;380;48.738;9.214;2023-07-08T06:24:26;5.97;;;4.43;;
793;SDS011;380;48.738;9.214;2023-07-08T06:26:52;6.63;;;3.53;;
793;SDS011;380;48.738;9.214;2023-07-08T06:29:18;4.60;;;3.88;;
793;SDS011;380;48.738;9.214;2023-07-08T06:31:44;6.55;;;4.03;;
793;SDS011;380;48.738;9.214;2023-07-08T06:34:10;5.68;;;4.10;;
793;SDS011;380;48.738;9.214;2023-07-08T06:36:36;4.68;;;3.72;;
793;SDS011;380;48.738;9.214;2023-07-08T06:39:02;8.05;;;4.40;;
793;SDS011;380;48.738;9.214;2023-07-08T06:41:28;6.57;;;4.05;;
793;SDS011;380;48.738;9.214;2023-07-08T06:43:54;6.88;;;3.97;;
793;SDS011;380;48.738;9.214;2023-07-08T06:46:20;5.68;;;4.05;;
793;SDS011;380;48.738;9.214;2023-07-08T06:48:46;6.18;;;4.10;;
793;SDS011;380;48.738;9.214;2023-07-08T06:51:12;5.55;;;4.05;;
793;SDS011;380;48.738;9.214;2023-07-08T06:53:38;4.60;;;3.58;;
793;SDS011;380;48.738;9.214;2023-07-08T06:56:04;6.60;;;4.20;;
793;SDS011;380;48.738;9.214;2023-07-08T06:58:30;9.63;;;4.80;;
793;SDS011;380;48.738;9.214;2023-07-08T07:00:56;6.18;;;3.65;;
793;SDS011;380;48.738;9.214;2023-07-08T07:03:22;6.18;;;4.18;;
793;SDS011;380;48.738;9.214;2023-07-08T07:05:48;6.30;;;4.70;;
793;SDS011;380;48.738;9.214;2023-07-08T07:08:13;5.85;;;3.90;;
793;SDS011;380;48.738;9.214;2023-07-08T07:10:39;5.05;;;4.35;;
793;SDS011;380;48.738;9.214;2023-07-08T07:13:05;5.10;;;4.00;;
793;SDS011;380;48.738;9.214;2023-07-08T07:15:31;5.60;;;3.83;;
793;SDS011;380;48.738;9.214;2023-07-08T07:17:57;6.03;;;3.63;;
793;SDS011;380;48.738;9.214;2023-07-08T07:20:24;6.95;;;3.75;;
793;SDS011;380;48.738;9.214;2023-07-08T07:22:50;6.78;;;4.20;;
793;SDS011;380;48.738;9.214;2023-07-08T07:25:16;5.40;;;4.03;;
793;SDS011;380;48.738;9.214;2023-07-08T07:27:42;5.32;;;3.70;;
793;SDS011;380;48.738;9.214;2023-07-08T07:30:08;5.38;;;3.65;;
793;SDS011;380;48.738;9.214;2023-07-08T07:32:38;6.15;;;4.03;;
793;SDS011;380;48.738;9.214;2023-07-08T07:35:04;6.20;;;4.60;;
793;SDS011;380;48.738;9.214;2023-07-08T07:37:30;7.70;;;3.65;;
793;SDS011;380;48.738;9.214;2023-07-08T07:39:56;5.10;;;4.22;;
793;SDS011;380;48.738;9.214;2023-07-08T07:42:22;4.65;;;3.30;;
793;SDS011;380;48.738;9.214;2023-07-08T07:44:48;6.00;;;4.13;;
793;SDS011;380;48.738;9.214;2023-07-08T07:47:14;4.78;;;3.72;;
793;SDS011;380;48.738;9.214;2023-07-08T07:49:40;4.60;;;3.22;;
793;SDS011;380;48.738;9.214;2023-07-08T07:52:06;5.65;;;4.10;;
793;SDS011;380;48.738;9.214;2023-07-08T07:54:32;5.50;;;3.67;;
793;SDS011;380;48.738;9.214;2023-07-08T07:56:58;5.45;;;3.38;;
793;SDS011;380;48.738;9.214;2023-07-08T07:59:24;4.63;;;3.55;;
793;SDS011;380;48.738;9.214;2023-07-08T08:01:50;3.55;;;2.70;;
793;SDS011;380;48.738;9.214;2023-07-08T08:04:16;4.35;;;3.72;;
793;SDS011;380;48.738;9.214;2023-07-08T08:06:42;3.67;;;2.67;;
793;SDS011;380;48.738;9.214;2023-07-08T08:09:08;4.80;;;3.15;;
793;SDS011;380;48.738;9.214;2023-07-08T08:11:34;4.57;;;2.78;;
793;SDS011;380;48.738;9.214;2023-07-08T08:14:00;6.50;;;3.30;;
793;SDS011;380;48.738;9.214;2023-07-08T08:16:28;3.22;;;2.55;;
793;SDS011;380;48.738;9.214;2023-07-08T08:18:54;5.78;;;2.95;;
793;SDS011;380;48.738;9.214;2023-07-08T08:21:20;5.13;;;3.40;;
793;SDS011;380;48.738;9.214;2023-07-08T08:23:46;9.00;;;2.72;;
793;SDS011;380;48.738;9.214;2023-07-08T08:26:12;5.55;;;3.17;;
793;SDS011;380;48.738;9.214;2023-07-08T08:28:39;4.45;;;2.92;;
793;SDS011;380;48.738;9.214;2023-07-08T08:31:05;5.75;;;2.90;;
793;SDS011;380;48.738;9.214;2023-07-08T08:33:31;3.83;;;2.38;;
793;SDS011;380;48.738;9.214;2023-07-08T08:35:57;3.35;;;2.42;;
793;SDS011;380;48.738;9.214;2023-07-08T08:38:22;4.00;;;2.60;;
793;SDS011;380;48.738;9.214;2023-07-08T08:40:48;5.00;;;2.33;;
793;SDS011;380;48.738;9.214;2023-07-08T08:43:17;3.85;;;2.95;;
793;SDS011;380;48.738;9.214;2023-07-08T08:45:53;7.28;;;3.67;;
793;SDS011;380;48.738;9.214;2023-07-08T08:48:21;4.65;;;2.83;;
793;SDS011;380;48.738;9.214;2023-07-08T08:50:51;7.35;;;2.83;;
793;SDS011;380;48.738;9.214;2023-07-08T08:53:17;4.80;;;2.85;;
793;SDS011;380;48.738;9.214;2023-07-08T08:55:45;4.32;;;2.70;;
793;SDS011;380;48.738;9.214;2023-07-08T09:03:18;5.32;;;2.28;;
793;SDS011;380;48.738;9.214;2023-07-08T09:05:48;2.90;;;2.03;;
793;SDS011;380;48.738;9.214;2023-07-08T09:10:46;4.82;;;1.67;;
793;SDS011;380;48.738;9.214;2023-07-08T09:13:21;2.33;;;1.55;;
793;SDS011;380;48.738;9.214;2023-07-08T09:15:48;2.72;;;1.80;;
793;SDS011;380;48.738;9.214;2023-07-08T09:18:17;2.30;;;1.13;;
793;SDS011;380;48.738;9.214;2023-07-08T09:20:45;3.85;;;1.77;;
793;SDS011;380;48.738;9.214;2023-07-08T09:25:46;5.22;;;2.72;;
793;SDS011;380;48.738;9.214;2023-07-08T09:28:13;3.97;;;1.70;;
793;SDS011;380;48.738;9.214;2023-07-08T09:30:39;4.15;;;2.65;;
793;SDS011;380;48.738;9.214;2023-07-08T09:33:06;3.38;;;1.90;;
793;SDS011;380;48.738;9.214;2023-07-08T09:35:45;3.75;;;2.15;;
793;SDS011;380;48.738;9.214;2023-07-08T09:38:18;2.72;;;1.77;;
793;SDS011;380;48.738;9.214;2023-07-08T09:40:47;3.80;;;2.45;;
793;SDS011;380;48.738;9.214;2023-07-08T09:43:25;5.53;;;2.47;;
793;SDS011;380;48.738;9.214;2023-07-08T09:45:52;3.88;;;2.50;;
793;SDS011;380;48.738;9.214;2023-07-08T09:48:26;4.65;;;2.75;;
793;SDS011;380;48.738;9.214;2023-07-08T09:50:53;4.65;;;2.88;;
793;SDS011;380;48.738;9.214;2023-07-08T09:53:19;5.28;;;2.28;;
793;SDS011;380;48.738;9.214;2023-07-08T09:55:46;3.95;;;2.50;;
793;SDS011;380;48.738;9.214;2023-07-08T09:58:13;3.65;;;2.33;;
793;SDS011;380;48.738;9.214;2023-07-08T10:00:41;4.63;;;3.38;;
793;SDS011;380;48.738;9.214;2023-07-08T10:03:20;3.83;;;2.90;;
793;SDS011;380;48.738;9.214;2023-07-08T10:05:48;4.97;;;3.05;;
793;SDS011;380;48.738;9.214;2023-07-08T10:08:21;4.75;;;2.60;;
793;SDS011;380;48.738;9.214;2023-07-08T10:10:48;3.65;;;2.33;;
793;SDS011;380;48.738;9.214;2023-07-08T10:13:37;4.13;;;3.03;;
793;SDS011;380;48.738;9.214;2023-07-08T10:18:48;4.18;;;2.30;;
793;SDS011;380;48.738;9.214;2023-07-08T10:23:51;5.38;;;2.10;;
793;SDS011;380;48.738;9.214;2023-07-08T10:26:24;3.20;;;2.30;;
793;SDS011;380;48.738;9.214;2023-07-08T10:28:58;4.07;;;2.58;;
793;SDS011;380;48.738;9.214;2023-07-08T10:32:00;3.63;;;2.25;;
793;SDS011;380;48.738;9.214;2023-07-08T10:37:04;3.65;;;1.70;;
793;SDS011;380;48.738;9.214;2023-07-08T10:39:43;2.22;;;1.35;;
793;SDS011;380;48.738;9.214;2023-07-08T10:42:19;5.90;;;1.88;;
793;SDS011;380;48.738;9.214;2023-07-08T10:52:37;3.53;;;1.60;;
793;SDS011;380;48.738;9.214;2023-07-08T10:58:07;4.93;;;2.45;;
793;SDS011;380;48.738;9.214;2023-07-08T11:06:08;2.95;;;2.03;;
793;SDS011;380;48.738;9.214;2023-07-08T11:08:40;3.13;;;1.85;;
793;SDS011;380;48.738;9.214;2023-07-08T11:11:09;2.85;;;2.05;;
793;SDS011;380;48.738;9.214;2023-07-08T11:13:39;2.17;;;1.48;;
793;SDS011;380;48.738;9.214;2023-07-08T11:16:12;2.80;;;1.40;;
793;SDS011;380;48.738;9.214;2023-07-08T11:18:41;2.10;;;1.40;;
793;SDS011;380;48.738;9.214;2023-07-08T11:21:10;2.63;;;1.35;;
793;SDS011;380;48.738;9.214;2023-07-08T11:26:18;3.03;;;1.55;;
793;SDS011;380;48.738;9.214;2023-07-08T11:28:45;2.60;;;1.52;;
793;SDS011;380;48.738;9.214;2023-07-08T11:31:12;3.22;;;1.90;;
793;SDS011;380;48.738;9.214;2023-07-08T11:33:38;5.35;;;2.03;;
793;SDS011;380;48.738;9.214;2023-07-08T11:36:05;3.65;;;1.85;;
793;SDS011;380;48.738;9.214;2023-07-08T11:38:32;4.05;;;2.17;;
793;SDS011;380;48.738;9.214;2023-07-08T11:41:04;3.55;;;2.00;;
793;SDS011;380;48.738;9.214;2023-07-08T11:43:57;2.85;;;1.73;;
793;SDS011;380;48.738;9.214;2023-07-08T11:46:26;2.30;;;1.77;;
793;SDS011;380;48.738;9.214;2023-07-08T11:48:54;2.67;;;1.88;;
793;SDS011;380;48.738;9.214;2023-07-08T11:51:26;2.83;;;1.65;;
793;SDS011;380;48.738;9.214;2023-07-08T11:56:50;3.42;;;2.22;;
793;SDS011;380;48.738;9.214;2023-07-08T11:59:26;2.30;;;1.65;;
793;SDS011;380;48.738;9.214;2023-07-08T12:02:00;3.25;;;1.52;;
793;SDS011;380;48.738;9.214;2023-07-08T12:04:28;4.25;;;1.55;;
793;SDS011;380;48.738;9.214;2023-07-08T12:07:02;4.88;;;1.63;;
793;SDS011;380;48.738;9.214;2023-07-08T12:09:29;5.55;;;2.20;;
793;SDS011;380;48.738;9.214;2023-07-08T12:12:01;2.67;;;1.58;;
793;SDS011;380;48.738;9.214;2023-07-08T12:14:28;6.03;;;1.70;;
793;SDS011;380;48.738;9.214;2023-07-08T12:16:54;2.63;;;1.40;;
793;SDS011;380;48.738;9.214;2023-07-08T12:19:21;3.13;;;1.83;;
793;SDS011;380;48.738;9.214;2023-07-08T12:21:48;2.80;;;1.67;;
793;SDS011;380;48.738;9.214;2023-07-08T12:24:14;2.35;;;1.58;;
793;SDS011;380;48.738;9.214;2023-07-08T12:26:40;3.47;;;1.55;;
793;SDS011;380;48.738;9.214;2023-07-08T12:29:09;2.80;;;1.42;;
793;SDS011;380;48.738;9.214;2023-07-08T12:31:36;2.95;;;1.55;;
793;SDS011;380;48.738;9.214;2023-07-08T12:34:02;3.35;;;1.92;;
793;SDS011;380;48.738;9.214;2023-07-08T12:36:30;2.58;;;1.60;;
793;SDS011;380;48.738;9.214;2023-07-08T12:38:59;1.88;;;1.33;;
793;SDS011;380;48.738;9.214;2023-07-08T12:41:28;2.95;;;1.30;;
793;SDS011;380;48.738;9.214;2023-07-08T12:43:55;2.95;;;1.70;;
793;SDS011;380;48.738;9.214;2023-07-08T12:46:21;2.97;;;1.90;;
793;SDS011;380;48.738;9.214;2023-07-08T12:48:47;3.22;;;1.80;;
793;SDS011;380;48.738;9.214;2023-07-08T12:51:15;5.45;;;2.00;;
793;SDS011;380;48.738;9.214;2023-07-08T12:53:41;3.63;;;1.98;;
793;SDS011;380;48.738;9.214;2023-07-08T12:56:07;2.70;;;1.60;;
793;SDS011;380;48.738;9.214;2023-07-08T12:58:34;3.42;;;1.65;;
793;SDS011;380;48.738;9.214;2023-07-08T13:01:02;2.58;;;1.67;;
793;SDS011;380;48.738;9.214;2023-07-08T13:03:30;4.40;;;1.80;;
793;SDS011;380;48.738;9.214;2023-07-08T13:05:57;3.50;;;2.10;;
793;SDS011;380;48.738;9.214;2023-07-08T13:08:25;2.42;;;1.40;;
793;SDS011;380;48.738;9.214;2023-07-08T13:10:55;2.42;;;1.77;;
793;SDS011;380;48.738;9.214;2023-07-08T13:13:23;3.88;;;1.73;;
793;SDS011;380;48.738;9.214;2023-07-08T13:15:50;2.13;;;1.60;;
793;SDS011;380;48.738;9.214;2023-07-08T13:18:28;2.35;;;1.35;;
793;SDS011;380;48.738;9.214;2023-07-08T13:20:55;3.05;;;1.55;;
793;SDS011;380;48.738;9.214;2023-07-08T13:23:22;2.30;;;1.30;;
793;SDS011;380;48.738;9.214;2023-07-08T13:25:48;2.60;;;1.30;;
793;SDS011;380;48.738;9.214;2023-07-08T13:28:16;2.25;;;1.20;;
793;SDS011;380;48.738;9.214;2023-07-08T13:33:20;1.63;;;0.80;;
793;SDS011;380;48.738;9.214;2023-07-08T13:35:47;2.88;;;1.08;;
793;SDS011;380;48.738;9.214;2023-07-08T13:38:20;4.60;;;1.10;;
793;SDS011;380;48.738;9.214;2023-07-08T13:40:48;2.20;;;1.10;;
793;SDS011;380;48.738;9.214;2023-07-08T13:43:15;3.55;;;1.42;;
793;SDS011;380;48.738;9.214;2023-07-08T13:45:45;5.20;;;1.48;;
793;SDS011;380;48.738;9.214;2023-07-08T13:48:18;3.42;;;1.70;;
793;SDS011;380;48.738;9.214;2023-07-08T13:50:50;2.85;;;1.38;;
793;SDS011;380;48.738;9.214;2023-07-08T13:53:20;2.13;;;1.08;;
793;SDS011;380;48.738;9.214;2023-07-08T13:55:47;3.03;;;1.02;;
793;SDS011;380;48.738;9.214;2023-07-08T13:58:16;3.45;;;1.45;;
793;SDS011;380;48.738;9.214;2023-07-08T14:03:10;2.25;;;1.45;;
793;SDS011;380;48.738;9.214;2023-07-08T14:05:39;3.25;;;1.70;;
793;SDS011;380;48.738;9.214;2023-07-08T14:08:10;2.13;;;1.40;;
793;SDS011;380;48.738;9.214;2023-07-08T14:10:38;4.10;;;1.88;;
793;SDS011;380;48.738;9.214;2023-07-08T14:13:04;3.30;;;1.88;;
793;SDS011;380;48.738;9.214;2023-07-08T14:15:30;2.47;;;1.27;;
793;SDS011;380;48.738;9.214;2023-07-08T14:17:57;2.15;;;1.10;;
793;SDS011;380;48.738;9.214;2023-07-08T14:20:23;3.20;;;1.67;;
793;SDS011;380;48.738;9.214;2023-07-08T14:22:50;3.30;;;1.50;;
793;SDS011;380;48.738;9.214;2023-07-08T14:25:16;4.88;;;2.03;;
793;SDS011;380;48.738;9.214;2023-07-08T14:27:45;3.92;;;2.22;;
793;SDS011;380;48.738;9.214;2023-07-08T14:30:11;2.88;;;1.63;;
793;SDS011;380;48.738;9.214;2023-07-08T14:32:38;4.68;;;1.52;;
793;SDS011;380;48.738;9.214;2023-07-08T14:37:39;3.75;;;1.48;;
793;SDS011;380;48.738;9.214;2023-07-08T14:40:13;2.00;;;1.13;;
793;SDS011;380;48.738;9.214;2023-07-08T14:42:44;2.42;;;1.15;;
793;SDS011;380;48.738;9.214;2023-07-08T14:45:10;2.90;;;1.52;;
793;SDS011;380;48.738;9.214;2023-07-08T14:47:36;2.40;;;1.42;;
793;SDS011;380;48.738;9.214;2023-07-08T14:50:14;3.13;;;1.50;;
793;SDS011;380;48.738;9.214;2023-07-08T14:52:40;3.97;;;1.80;;
793;SDS011;380;48.738;9.214;2023-07-08T14:55:07;1.92;;;1.13;;
793;SDS011;380;48.738;9.214;2023-07-08T14:57:38;2.50;;;1.17;;
793;SDS011;380;48.738;9.214;2023-07-08T15:00:05;2.88;;;1.55;;
793;SDS011;380;48.738;9.214;2023-07-08T15:02:31;6.22;;;1.80;;
793;SDS011;380;48.738;9.214;2023-07-08T15:04:59;2.90;;;1.55;;
793;SDS011;380;48.738;9.214;2023-07-08T15:07:25;3.30;;;1.48;;
793;SDS011;380;48.738;9.214;2023-07-08T15:09:51;5.60;;;1.67;;
793;SDS011;380;48.738;9.214;2023-07-08T15:12:17;3.42;;;1.50;;
793;SDS011;380;48.738;9.214;2023-07-08T15:14:44;2.80;;;1.50;;
793;SDS011;380;48.738;9.214;2023-07-08T15:17:11;2.80;;;1.58;;
793;SDS011;380;48.738;9.214;2023-07-08T15:19:39;2.58;;;1.50;;
793;SDS011;380;48.738;9.214;2023-07-08T15:22:05;2.53;;;1.52;;
793;SDS011;380;48.738;9.214;2023-07-08T15:24:31;2.38;;;1.45;;
793;SDS011;380;48.738;9.214;2023-07-08T15:26:57;2.00;;;1.20;;
793;SDS011;380;48.738;9.214;2023-07-08T15:29:23;2.88;;;1.70;;
793;SDS011;380;48.738;9.214;2023-07-08T15:31:49;1.80;;;1.00;;
793;SDS011;380;48.738;9.214;2023-07-08T15:34:19;1.73;;;1.17;;
793;SDS011;380;48.738;9.214;2023-07-08T15:36:45;3.03;;;1.42;;
793;SDS011;380;48.738;9.214;2023-07-08T15:39:12;3.17;;;1.60;;
793;SDS011;380;48.738;9.214;2023-07-08T15:41:38;2.15;;;1.25;;
793;SDS011;380;48.738;9.214;2023-07-08T15:44:04;2.47;;;1.52;;
793;SDS011;380;48.738;9.214;2023-07-08T15:46:34;2.28;;;1.05;;
793;SDS011;380;48.738;9.214;2023-07-08T15:49:01;1.95;;;1.17;;
793;SDS011;380;48.738;9.214;2023-07-08T15:51:34;2.70;;;1.73;;
793;SDS011;380;48.738;9.214;2023-07-08T15:54:01;3.58;;;1.50;;
793;SDS011;380;48.738;9.214;2023-07-08T15:56:26;1.85;;;1.17;;
793;SDS011;380;48.738;9.214;2023-07-08T15:58:52;2.30;;;1.60;;
793;SDS011;380;48.738;9.214;2023-07-08T16:01:19;3.28;;;1.55;;
793;SDS011;380;48.738;9.214;2023-07-08T16:03:47;2.35;;;1.55;;
793;SDS011;380;48.738;9.214;2023-07-08T16:06:13;4.00;;;1.63;;
793;SDS011;380;48.738;9.214;2023-07-08T16:08:39;3.60;;;1.17;;
793;SDS011;380;48.738;9.214;2023-07-08T16:11:09;3.03;;;1.83;;
793;SDS011;380;48.738;9.214;2023-07-08T16:13:37;3.95;;;1.50;;
793;SDS011;380;48.738;9.214;2023-07-08T16:16:03;4.45;;;1.80;;
793;SDS011;380;48.738;9.214;2023-07-08T16:18:29;4.78;;;1.65;;
793;SDS011;380;48.738;9.214;2023-07-08T16:20:55;2.35;;;1.40;;
793;SDS011;380;48.738;9.214;2023-07-08T16:23:21;3.63;;;1.50;;
793;SDS011;380;48.738;9.214;2023-07-08T16:25:49;4.28;;;1.45;;
793;SDS011;380;48.738;9.214;2023-07-08T16:28:17;4.18;;;1.50;;
793;SDS011;380;48.738;9.214;2023-07-08T16:30:43;2.92;;;1.85;;
793;SDS011;380;48.738;9.214;2023-07-08T16:33:09;4.15;;;1.55;;
793;SDS011;380;48.738;9.214;2023-07-08T16:35:35;4.22;;;1.73;;
793;SDS011;380;48.738;9.214;2023-07-08T16:38:01;4.07;;;1.98;;
793;SDS011;380;48.738;9.214;2023-07-08T16:40:27;2.47;;;1.48;;